createdAt,value
2023-05-02T00:00:58.011Z,11.69
2023-05-02T00:01:58.004Z,10.80
2023-05-02T00:02:58.436Z,11.60
2023-05-02T00:03:58.110Z,11.60
2023-05-02T00:04:57.974Z,12.00
2023-05-02T00:05:57.998Z,11.89
2023-05-02T00:06:58.138Z,12.00
2023-05-02T00:07:57.924Z,15.10
2023-05-02T00:08:57.996Z,14.10
2023-05-02T00:09:58.204Z,12.69
2023-05-02T00:10:57.939Z,15.10
2023-05-02T00:11:57.909Z,13.89
2023-05-02T00:12:58.008Z,13.30
2023-05-02T00:13:57.958Z,16.00
2023-05-02T00:14:57.934Z,15.30
2023-05-02T00:15:57.863Z,14.89
2023-05-02T00:16:57.914Z,18.70
2023-05-02T00:17:57.877Z,15.89
2023-05-02T00:18:57.828Z,18.29
2023-05-02T00:19:58.079Z,16.10
2023-05-02T00:20:57.803Z,17.79
2023-05-02T00:21:57.784Z,14.69
2023-05-02T00:22:57.775Z,14.50
2023-05-02T00:23:57.776Z,19.29
2023-05-02T00:24:57.786Z,14.10
2023-05-02T00:25:57.746Z,17.60
2023-05-02T00:26:57.750Z,17.10
2023-05-02T00:27:57.722Z,14.50
2023-05-02T00:28:57.724Z,16.39
2023-05-02T00:29:58.035Z,14.69
2023-05-02T00:30:57.736Z,14.50
2023-05-02T00:31:57.686Z,11.89
2023-05-02T00:32:57.773Z,15.80
2023-05-02T00:33:57.660Z,13.10
2023-05-02T00:34:57.660Z,11.89
2023-05-02T00:35:57.639Z,14.50
2023-05-02T00:36:57.636Z,12.30
2023-05-02T00:37:57.619Z,14.39
2023-05-02T00:38:57.612Z,13.19
2023-05-02T00:39:57.836Z,14.60
2023-05-02T00:40:57.625Z,13.30
2023-05-02T00:41:57.586Z,13.50
2023-05-02T00:42:57.576Z,14.60
2023-05-02T00:43:57.560Z,10.80
2023-05-02T00:44:57.549Z,16.39
2023-05-02T00:45:57.552Z,14.60
2023-05-02T00:46:57.570Z,16.60
2023-05-02T00:47:57.534Z,16.00
2023-05-02T00:48:57.520Z,14.10
2023-05-02T00:49:57.625Z,13.69
2023-05-02T00:50:57.518Z,14.60
2023-05-02T00:51:57.580Z,13.80
2023-05-02T00:52:57.473Z,14.19
2023-05-02T00:53:57.456Z,12.80
2023-05-02T00:54:57.452Z,14.30
2023-05-02T00:55:57.429Z,13.39
2023-05-02T00:56:57.450Z,11.30
2023-05-02T00:57:57.412Z,12.89
2023-05-02T00:58:57.411Z,11.89
2023-05-02T00:59:57.684Z,13.80
2023-05-02T01:00:57.385Z,14.39
2023-05-02T01:01:57.432Z,12.30
2023-05-02T01:02:57.423Z,15.39
2023-05-02T01:03:57.433Z,11.69
2023-05-02T01:04:57.355Z,13.60
2023-05-02T01:05:57.337Z,12.00
2023-05-02T01:06:57.322Z,11.60
2023-05-02T01:07:57.300Z,13.10
2023-05-02T01:08:57.304Z,11.50
2023-05-02T01:09:57.708Z,12.50
2023-05-02T01:10:57.292Z,10.89
2023-05-02T01:11:57.267Z,10.19
2023-05-02T01:12:57.283Z,11.80
2023-05-02T01:13:57.263Z,9.69
2023-05-02T01:14:57.238Z,10.89
2023-05-02T01:15:57.262Z,9.10
2023-05-02T01:16:57.216Z,10.30
2023-05-02T01:17:57.222Z,11.69
2023-05-02T01:18:57.215Z,10.39
2023-05-02T01:19:57.231Z,12.89
2023-05-02T01:20:57.177Z,10.30
2023-05-02T01:21:57.160Z,11.00
2023-05-02T01:22:57.166Z,11.69
2023-05-02T01:23:57.159Z,11.00
2023-05-02T01:24:57.139Z,11.39
2023-05-02T01:25:57.116Z,11.00
2023-05-02T01:26:57.111Z,12.89
2023-05-02T01:27:57.098Z,11.30
2023-05-02T01:28:57.119Z,11.39
2023-05-02T01:29:57.184Z,13.60
2023-05-02T01:30:57.102Z,10.39
2023-05-02T01:31:57.120Z,14.19
2023-05-02T01:32:57.072Z,11.60
2023-05-02T01:33:57.037Z,16.20
2023-05-02T01:34:57.028Z,13.30
2023-05-02T01:35:57.014Z,16.20
2023-05-02T01:36:57.012Z,16.20
2023-05-02T01:37:56.988Z,14.89
2023-05-02T01:38:56.991Z,19.00
2023-05-02T01:39:57.160Z,19.20
2023-05-02T01:40:56.978Z,20.20
2023-05-02T01:41:56.967Z,20.89
2023-05-02T01:42:56.953Z,20.50
2023-05-02T01:43:56.970Z,22.10
2023-05-02T01:44:56.960Z,20.20
2023-05-02T01:45:56.920Z,22.00
2023-05-02T01:46:56.946Z,21.20
2023-05-02T01:47:56.911Z,19.50
2023-05-02T01:48:56.890Z,20.70
2023-05-02T01:49:56.968Z,21.70
2023-05-02T01:50:56.872Z,19.29
2023-05-02T01:51:56.859Z,19.60
2023-05-02T01:52:56.844Z,18.89
2023-05-02T01:53:56.830Z,15.89
2023-05-02T01:54:56.842Z,18.29
2023-05-02T01:55:56.812Z,13.19
2023-05-02T01:56:56.815Z,17.39
2023-05-02T01:57:56.810Z,13.10
2023-05-02T01:58:56.786Z,17.60
2023-05-02T01:59:56.814Z,16.39
2023-05-02T02:00:56.824Z,17.70
2023-05-02T02:01:56.747Z,13.39
2023-05-02T02:02:56.796Z,12.39
2023-05-02T02:03:56.790Z,10.80
2023-05-02T02:04:56.722Z,12.00
2023-05-02T02:05:56.706Z,10.30
2023-05-02T02:06:56.707Z,12.69
2023-05-02T02:07:56.680Z,11.19
2023-05-02T02:08:56.685Z,14.30
2023-05-02T02:09:56.666Z,14.19
2023-05-02T02:10:56.659Z,13.89
2023-05-02T02:11:56.639Z,14.10
2023-05-02T02:12:56.639Z,13.10
2023-05-02T02:13:56.619Z,15.69
2023-05-02T02:14:56.617Z,12.80
2023-05-02T02:15:56.600Z,15.30
2023-05-02T02:16:56.658Z,14.80
2023-05-02T02:17:56.614Z,12.50
2023-05-02T02:18:56.590Z,15.30
2023-05-02T02:19:56.554Z,11.80
2023-05-02T02:20:56.565Z,14.30
2023-05-02T02:21:56.538Z,12.10
2023-05-02T02:22:56.533Z,14.39
2023-05-02T02:23:56.528Z,11.00
2023-05-02T02:24:56.531Z,13.19
2023-05-02T02:25:56.499Z,11.39
2023-05-02T02:26:56.502Z,13.80
2023-05-02T02:27:56.473Z,10.50
2023-05-02T02:28:56.458Z,14.50
2023-05-02T02:29:56.469Z,11.19
2023-05-02T02:30:56.477Z,13.10
2023-05-02T02:31:56.443Z,14.89
2023-05-02T02:32:56.498Z,11.39
2023-05-02T02:33:56.418Z,14.50
2023-05-02T02:34:56.418Z,13.00
2023-05-02T02:35:56.400Z,21.70
2023-05-02T02:36:56.378Z,17.10
2023-05-02T02:37:56.380Z,15.69
2023-05-02T02:38:56.366Z,18.00
2023-05-02T02:39:56.360Z,17.39
2023-05-02T02:40:56.376Z,13.10
2023-05-02T02:41:56.429Z,19.60
2023-05-02T02:42:56.318Z,15.30
2023-05-02T02:43:56.328Z,17.29
2023-05-02T02:44:56.297Z,18.50
2023-05-02T02:45:56.415Z,14.60
2023-05-02T02:46:56.283Z,15.80
2023-05-02T02:47:56.369Z,14.89
2023-05-02T02:48:56.283Z,17.10
2023-05-02T02:49:56.259Z,17.20
2023-05-02T02:50:56.240Z,16.60
2023-05-02T02:51:56.240Z,15.00
2023-05-02T02:52:56.222Z,15.89
2023-05-02T02:53:56.214Z,16.70
2023-05-02T02:54:56.184Z,13.89
2023-05-02T02:55:56.209Z,18.70
2023-05-02T02:56:56.168Z,11.80
2023-05-02T02:57:56.182Z,17.50
2023-05-02T02:58:56.147Z,13.50
2023-05-02T02:59:56.148Z,17.29
2023-05-02T03:00:56.138Z,14.10
2023-05-02T03:01:56.217Z,15.30
2023-05-02T03:02:56.173Z,14.39
2023-05-02T03:03:56.149Z,13.50
2023-05-02T03:04:56.107Z,14.60
2023-05-02T03:05:56.081Z,10.19
2023-05-02T03:06:56.157Z,14.30
2023-05-02T03:07:56.068Z,11.89
2023-05-02T03:08:56.040Z,13.50
2023-05-02T03:09:56.044Z,12.50
2023-05-02T03:10:56.032Z,14.50
2023-05-02T03:11:56.019Z,13.69
2023-05-02T03:12:56.220Z,14.80
2023-05-02T03:13:56.002Z,13.10
2023-05-02T03:14:55.989Z,15.69
2023-05-02T03:15:55.987Z,13.10
2023-05-02T03:16:55.963Z,16.50
2023-05-02T03:17:56.019Z,14.89
2023-05-02T03:18:55.937Z,16.50
2023-05-02T03:19:55.956Z,14.89
2023-05-02T03:20:55.962Z,14.30
2023-05-02T03:21:55.922Z,12.19
2023-05-02T03:22:55.920Z,12.10
2023-05-02T03:23:55.895Z,13.30
2023-05-02T03:24:55.890Z,12.00
2023-05-02T03:25:55.875Z,12.69
2023-05-02T03:26:55.872Z,12.30
2023-05-02T03:27:55.864Z,11.50
2023-05-02T03:28:55.838Z,11.60
2023-05-02T03:29:55.846Z,13.00
2023-05-02T03:30:55.840Z,12.39
2023-05-02T03:31:55.857Z,12.19
2023-05-02T03:32:55.882Z,9.10
2023-05-02T03:33:55.793Z,12.80
2023-05-02T03:34:55.775Z,11.39
2023-05-02T03:35:55.777Z,13.00
2023-05-02T03:36:55.778Z,11.19
2023-05-02T03:37:55.764Z,12.00
2023-05-02T03:38:55.748Z,12.19
2023-05-02T03:39:55.696Z,9.89
2023-05-02T03:40:55.673Z,12.10
2023-05-02T03:41:55.656Z,11.30
2023-05-02T03:42:55.639Z,12.50
2023-05-02T03:43:55.642Z,12.50
2023-05-02T03:44:55.631Z,15.30
2023-05-02T03:45:55.629Z,12.00
2023-05-02T03:46:55.689Z,13.30
2023-05-02T03:47:55.688Z,11.89
2023-05-02T03:48:55.575Z,12.39
2023-05-02T03:49:55.578Z,14.00
2023-05-02T03:50:55.556Z,11.39
2023-05-02T03:51:55.562Z,12.19
2023-05-02T03:52:55.564Z,13.80
2023-05-02T03:53:55.536Z,14.50
2023-05-02T03:54:55.519Z,14.60
2023-05-02T03:55:55.518Z,12.50
2023-05-02T03:56:55.508Z,16.10
2023-05-02T03:57:55.497Z,12.50
2023-05-02T03:58:55.553Z,11.60
2023-05-02T03:59:55.481Z,14.60
2023-05-02T04:00:55.455Z,11.69
2023-05-02T04:01:55.473Z,12.19
2023-05-02T04:02:55.488Z,14.50
2023-05-02T04:03:55.487Z,15.60
2023-05-02T04:04:55.451Z,13.50
2023-05-02T04:05:55.413Z,16.20
2023-05-02T04:06:55.500Z,14.30
2023-05-02T04:07:55.388Z,15.00
2023-05-02T04:08:55.414Z,14.89
2023-05-02T04:09:55.374Z,13.50
2023-05-02T04:10:55.361Z,17.00
2023-05-02T04:11:55.366Z,17.60
2023-05-02T04:12:55.333Z,19.89
2023-05-02T04:13:55.331Z,17.70
2023-05-02T04:14:55.323Z,22.10
2023-05-02T04:15:55.330Z,15.39
2023-05-02T04:16:55.377Z,23.29
2023-05-02T04:17:55.353Z,18.60
2023-05-02T04:18:55.291Z,21.29
2023-05-02T04:19:55.268Z,19.20
2023-05-02T04:20:55.256Z,17.50
2023-05-02T04:21:55.249Z,18.70
2023-05-02T04:22:55.241Z,17.10
2023-05-02T04:23:55.227Z,17.10
2023-05-02T04:24:55.346Z,21.10
2023-05-02T04:25:55.211Z,14.80
2023-05-02T04:26:55.211Z,18.39
2023-05-02T04:27:55.210Z,16.20
2023-05-02T04:28:55.179Z,12.30
2023-05-02T04:29:55.182Z,16.79
2023-05-02T04:30:55.233Z,15.10
2023-05-02T04:31:55.171Z,17.00
2023-05-02T04:32:55.162Z,13.00
2023-05-02T04:33:55.128Z,14.39
2023-05-02T04:34:55.112Z,14.69
2023-05-02T04:35:55.135Z,12.80
2023-05-02T04:36:55.080Z,16.89
2023-05-02T04:37:55.081Z,14.19
2023-05-02T04:38:55.062Z,15.10
2023-05-02T04:39:55.092Z,17.10
2023-05-02T04:40:55.061Z,17.10
2023-05-02T04:41:55.039Z,18.70
2023-05-02T04:42:55.030Z,19.29
2023-05-02T04:43:55.018Z,18.10
2023-05-02T04:44:55.015Z,18.89
2023-05-02T04:45:55.015Z,16.10
2023-05-02T04:46:55.042Z,17.70
2023-05-02T04:47:54.991Z,14.50
2023-05-02T04:48:54.958Z,14.19
2023-05-02T04:49:54.964Z,13.69
2023-05-02T04:50:54.943Z,17.50
2023-05-02T04:51:54.931Z,11.69
2023-05-02T04:52:54.938Z,16.60
2023-05-02T04:53:54.908Z,13.00
2023-05-02T04:54:54.895Z,15.39
2023-05-02T04:55:54.898Z,12.10
2023-05-02T04:56:54.894Z,18.00
2023-05-02T04:57:54.885Z,14.80
2023-05-02T04:58:54.853Z,19.50
2023-05-02T04:59:54.851Z,16.60
2023-05-02T05:00:54.836Z,15.39
2023-05-02T05:01:54.845Z,20.29
2023-05-02T05:02:54.877Z,19.89
2023-05-02T05:03:54.929Z,23.50
2023-05-02T05:04:54.825Z,25.70
2023-05-02T05:05:54.796Z,22.70
2023-05-02T05:06:54.826Z,28.20
2023-05-02T05:07:54.768Z,22.70
2023-05-02T05:08:54.751Z,26.20
2023-05-02T05:09:54.787Z,21.20
2023-05-02T05:10:54.733Z,26.50
2023-05-02T05:11:54.724Z,24.50
2023-05-02T05:12:54.758Z,23.89
2023-05-02T05:13:54.709Z,25.60
2023-05-02T05:14:54.685Z,19.89
2023-05-02T05:15:54.727Z,23.89
2023-05-02T05:16:54.669Z,26.79
2023-05-02T05:17:54.692Z,22.89
2023-05-02T05:18:54.648Z,25.70
2023-05-02T05:19:54.645Z,21.70
2023-05-02T05:20:54.629Z,25.00
2023-05-02T05:21:54.630Z,26.20
2023-05-02T05:22:54.607Z,23.79
2023-05-02T05:23:54.602Z,22.20
2023-05-02T05:24:54.614Z,21.29
2023-05-02T05:25:54.584Z,27.10
2023-05-02T05:26:54.558Z,21.79
2023-05-02T05:27:54.558Z,24.10
2023-05-02T05:28:54.570Z,29.00
2023-05-02T05:29:54.542Z,26.60
2023-05-02T05:30:54.522Z,29.50
2023-05-02T05:31:54.584Z,33.20
2023-05-02T05:32:54.589Z,37.90
2023-05-02T05:33:54.513Z,34.79
2023-05-02T05:34:54.477Z,37.40
2023-05-02T05:35:54.481Z,35.79
2023-05-02T05:36:54.457Z,39.79
2023-05-02T05:37:54.469Z,39.00
2023-05-02T05:38:54.442Z,37.50
2023-05-02T05:39:54.433Z,34.20
2023-05-02T05:40:54.420Z,37.90
2023-05-02T05:41:54.402Z,32.50
2023-05-02T05:42:54.390Z,35.50
2023-05-02T05:43:54.397Z,36.50
2023-05-02T05:44:54.540Z,33.59
2023-05-02T05:45:54.374Z,32.00
2023-05-02T05:46:54.421Z,30.89
2023-05-02T05:47:54.428Z,30.50
2023-05-02T05:48:54.323Z,31.20
2023-05-02T05:49:54.344Z,30.29
2023-05-02T05:50:54.306Z,30.60
2023-05-02T05:51:54.323Z,31.89
2023-05-02T05:52:54.288Z,28.00
2023-05-02T05:53:54.278Z,29.20
2023-05-02T05:54:54.262Z,29.50
2023-05-02T05:55:54.284Z,28.79
2023-05-02T05:56:54.245Z,30.60
2023-05-02T05:57:54.290Z,26.39
2023-05-02T05:58:54.221Z,25.70
2023-05-02T05:59:54.223Z,26.50
2023-05-02T06:00:54.230Z,26.89
2023-05-02T06:01:54.216Z,25.79
2023-05-02T06:02:54.290Z,26.10
2023-05-02T06:03:54.266Z,27.39
2023-05-02T06:04:54.203Z,28.00
2023-05-02T06:05:54.175Z,24.29
2023-05-02T06:06:54.205Z,24.20
2023-05-02T06:07:54.134Z,24.10
2023-05-02T06:08:54.124Z,24.50
2023-05-02T06:09:54.129Z,24.10
2023-05-02T06:10:54.097Z,23.20
2023-05-02T06:11:54.101Z,23.60
2023-05-02T06:12:54.080Z,20.89
2023-05-02T06:13:54.079Z,21.29
2023-05-02T06:14:54.072Z,21.79
2023-05-02T06:15:54.094Z,22.00
2023-05-02T06:16:54.052Z,20.50
2023-05-02T06:17:54.094Z,20.29
2023-05-02T06:18:54.011Z,19.00
2023-05-02T06:19:54.005Z,20.10
2023-05-02T06:20:53.986Z,20.60
2023-05-02T06:21:54.000Z,19.50
2023-05-02T06:22:54.086Z,18.60
2023-05-02T06:23:53.977Z,18.20
2023-05-02T06:24:53.951Z,16.79
2023-05-02T06:25:53.953Z,18.39
2023-05-02T06:26:53.955Z,17.39
2023-05-02T06:27:53.934Z,17.29
2023-05-02T06:28:53.911Z,16.79
2023-05-02T06:29:53.944Z,17.50
2023-05-02T06:30:53.891Z,17.39
2023-05-02T06:31:54.027Z,18.79
2023-05-02T06:32:54.008Z,18.70
2023-05-02T06:33:53.855Z,16.20
2023-05-02T06:34:53.837Z,14.39
2023-05-02T06:35:53.837Z,14.69
2023-05-02T06:36:53.814Z,14.69
2023-05-02T06:37:53.825Z,16.79
2023-05-02T06:38:53.798Z,16.79
2023-05-02T06:39:53.803Z,16.89
2023-05-02T06:40:53.780Z,15.39
2023-05-02T06:41:53.773Z,14.89
2023-05-02T06:42:53.760Z,15.50
2023-05-02T06:43:53.758Z,15.69
2023-05-02T06:44:53.740Z,15.10
2023-05-02T06:45:53.721Z,15.19
2023-05-02T06:46:53.757Z,15.10
2023-05-02T06:47:53.849Z,15.00
2023-05-02T06:48:53.731Z,14.19
2023-05-02T06:49:53.693Z,15.10
2023-05-02T06:50:53.674Z,16.29
2023-05-02T06:51:53.672Z,15.50
2023-05-02T06:52:53.663Z,13.69
2023-05-02T06:53:53.636Z,16.10
2023-05-02T06:54:53.631Z,15.50
2023-05-02T06:55:53.646Z,15.69
2023-05-02T06:56:53.611Z,14.60
2023-05-02T06:57:53.588Z,14.50
2023-05-02T06:58:53.591Z,14.30
2023-05-02T06:59:53.591Z,14.10
2023-05-02T07:00:53.605Z,14.69
2023-05-02T07:01:53.548Z,14.60
2023-05-02T07:02:53.568Z,14.39
2023-05-02T07:03:53.569Z,15.80
2023-05-02T07:04:53.556Z,16.00
2023-05-02T07:05:53.506Z,15.89
2023-05-02T07:06:53.536Z,15.69
2023-05-02T07:07:53.493Z,15.30
2023-05-02T07:08:53.479Z,14.69
2023-05-02T07:09:53.465Z,15.10
2023-05-02T07:10:53.456Z,14.00
2023-05-02T07:11:53.443Z,14.80
2023-05-02T07:12:53.442Z,14.80
2023-05-02T07:13:53.423Z,15.80
2023-05-02T07:14:53.430Z,17.39
2023-05-02T07:15:53.397Z,17.50
2023-05-02T07:16:53.470Z,17.00
2023-05-02T07:17:53.418Z,14.50
2023-05-02T07:18:53.374Z,14.89
2023-05-02T07:19:53.355Z,14.69
2023-05-02T07:20:53.371Z,14.50
2023-05-02T07:21:53.332Z,14.89
2023-05-02T07:22:53.328Z,15.80
2023-05-02T07:23:53.309Z,13.89
2023-05-02T07:24:53.308Z,12.50
2023-05-02T07:25:53.293Z,11.19
2023-05-02T07:26:53.295Z,11.69
2023-05-02T07:27:53.267Z,11.80
2023-05-02T07:28:53.271Z,10.39
2023-05-02T07:29:53.248Z,9.69
2023-05-02T07:30:53.253Z,10.00
2023-05-02T07:31:53.290Z,9.39
2023-05-02T07:32:53.257Z,10.39
2023-05-02T07:33:53.208Z,9.80
2023-05-02T07:34:53.209Z,8.89
2023-05-02T07:35:53.180Z,10.10
2023-05-02T07:36:53.193Z,9.80
2023-05-02T07:37:53.179Z,9.00
2023-05-02T07:38:53.164Z,8.89
2023-05-02T07:39:53.139Z,8.80
2023-05-02T07:40:53.147Z,8.89
2023-05-02T07:41:53.127Z,9.10
2023-05-02T07:42:53.113Z,8.50
2023-05-02T07:43:53.100Z,8.60
2023-05-02T07:44:53.092Z,9.00
2023-05-02T07:45:53.166Z,9.19
2023-05-02T07:46:53.076Z,8.60
2023-05-02T07:47:53.089Z,8.50
2023-05-02T07:48:53.064Z,11.19
2023-05-02T07:49:53.026Z,17.79
2023-05-02T07:50:53.026Z,10.19
2023-05-02T07:51:53.017Z,10.00
2023-05-02T07:52:53.033Z,8.50
2023-05-02T07:53:53.124Z,8.89
2023-05-02T07:54:53.006Z,8.39
2023-05-02T07:55:52.980Z,8.69
2023-05-02T07:56:52.988Z,8.60
2023-05-02T07:57:52.946Z,9.30
2023-05-02T07:58:52.950Z,9.00
2023-05-02T07:59:52.930Z,7.69
2023-05-02T08:00:52.918Z,8.69
2023-05-02T08:01:52.909Z,8.80
2023-05-02T08:02:52.990Z,8.30
2023-05-02T08:03:53.143Z,9.10
2023-05-02T08:04:52.908Z,9.89
2023-05-02T08:05:52.872Z,10.39
2023-05-02T08:06:53.079Z,9.19
2023-05-02T08:07:52.840Z,8.30
2023-05-02T08:08:52.877Z,9.10
2023-05-02T08:09:52.832Z,8.80
2023-05-02T08:10:52.836Z,8.30
2023-05-02T08:11:52.796Z,8.19
2023-05-02T08:12:52.799Z,6.00
2023-05-02T08:13:52.776Z,6.30
2023-05-02T08:14:52.784Z,5.50
2023-05-02T08:15:52.827Z,4.80
2023-05-02T08:16:52.795Z,5.09
2023-05-02T08:17:52.792Z,5.19
2023-05-02T08:18:52.740Z,5.09
2023-05-02T08:19:52.731Z,5.50
2023-05-02T08:20:52.713Z,6.30
2023-05-02T08:21:52.685Z,5.90
2023-05-02T08:22:52.687Z,6.09
2023-05-02T08:23:52.690Z,6.09
2023-05-02T08:24:52.688Z,5.40
2023-05-02T08:25:52.679Z,5.09
2023-05-02T08:26:52.645Z,4.90
2023-05-02T08:27:52.626Z,4.90
2023-05-02T08:28:52.628Z,4.90
2023-05-02T08:29:52.615Z,5.50
2023-05-02T08:30:52.609Z,5.09
2023-05-02T08:31:52.660Z,5.00
2023-05-02T08:32:52.616Z,5.19
2023-05-02T08:33:52.563Z,5.30
2023-05-02T08:34:52.560Z,5.50
2023-05-02T08:35:52.554Z,5.00
2023-05-02T08:36:52.543Z,5.00
2023-05-02T08:37:52.519Z,5.00
2023-05-02T08:38:52.516Z,5.30
2023-05-02T08:39:52.489Z,5.30
2023-05-02T08:40:52.592Z,4.80
2023-05-02T08:41:52.505Z,5.19
2023-05-02T08:42:52.472Z,5.40
2023-05-02T08:43:52.450Z,5.19
2023-05-02T08:44:52.446Z,5.00
2023-05-02T08:45:52.428Z,5.30
2023-05-02T08:46:52.434Z,4.80
2023-05-02T08:47:52.497Z,5.69
2023-05-02T08:48:52.408Z,6.40
2023-05-02T08:49:52.406Z,6.40
2023-05-02T08:50:52.384Z,7.00
2023-05-02T08:51:52.366Z,7.19
2023-05-02T08:52:52.362Z,6.09
2023-05-02T08:53:52.341Z,6.00
2023-05-02T08:54:52.331Z,5.80
2023-05-02T08:55:52.325Z,6.69
2023-05-02T08:56:52.340Z,5.69
2023-05-02T08:57:52.297Z,5.69
2023-05-02T08:58:52.296Z,5.00
2023-05-02T08:59:52.274Z,5.40
2023-05-02T09:00:52.380Z,5.30
2023-05-02T09:01:52.265Z,5.00
2023-05-02T09:02:52.382Z,5.59
2023-05-02T09:03:52.306Z,6.00
2023-05-02T09:04:52.233Z,5.19
2023-05-02T09:05:52.237Z,5.40
2023-05-02T09:06:52.351Z,5.40
2023-05-02T09:07:52.218Z,5.09
2023-05-02T09:08:52.187Z,4.69
2023-05-02T09:09:52.181Z,5.09
2023-05-02T09:10:52.156Z,4.59
2023-05-02T09:11:52.141Z,4.80
2023-05-02T09:12:52.161Z,5.80
2023-05-02T09:13:52.145Z,5.30
2023-05-02T09:14:52.119Z,5.30
2023-05-02T09:15:52.099Z,4.59
2023-05-02T09:16:52.171Z,4.80
2023-05-02T09:17:52.159Z,5.50
2023-05-02T09:18:52.074Z,4.69
2023-05-02T09:19:52.059Z,4.19
2023-05-02T09:20:52.063Z,4.09
2023-05-02T09:21:52.040Z,4.09
2023-05-02T09:22:52.106Z,4.40
2023-05-02T09:23:52.013Z,4.19
2023-05-02T09:24:52.004Z,3.79
2023-05-02T09:25:52.005Z,3.90
2023-05-02T09:26:52.003Z,3.20
2023-05-02T09:27:52.034Z,3.20
2023-05-02T09:28:52.103Z,3.70
2023-05-02T09:29:51.954Z,3.29
2023-05-02T09:30:51.973Z,3.09
2023-05-02T09:31:56.016Z,3.20
2023-05-02T09:32:51.956Z,3.09
2023-05-02T09:33:51.907Z,2.79
2023-05-02T09:34:51.911Z,3.20
2023-05-02T09:35:51.893Z,3.59
2023-05-02T09:36:52.088Z,3.00
2023-05-02T09:37:51.867Z,3.00
2023-05-02T09:38:51.878Z,3.40
2023-05-02T09:39:51.847Z,4.30
2023-05-02T09:40:51.847Z,6.90
2023-05-02T09:41:51.821Z,4.40
2023-05-02T09:42:51.835Z,3.29
2023-05-02T09:43:51.826Z,2.90
2023-05-02T09:44:51.817Z,2.79
2023-05-02T09:45:51.847Z,3.09
2023-05-02T09:46:51.791Z,3.09
2023-05-02T09:47:51.820Z,2.90
2023-05-02T09:48:51.840Z,3.00
2023-05-02T09:49:51.735Z,3.09
2023-05-02T09:50:51.741Z,3.20
2023-05-02T09:51:51.718Z,4.50
2023-05-02T09:52:51.737Z,4.59
2023-05-02T09:53:51.703Z,4.19
2023-05-02T09:54:51.695Z,5.19
2023-05-02T09:55:51.680Z,4.09
2023-05-02T09:56:51.692Z,4.30
2023-05-02T09:57:51.647Z,4.40
2023-05-02T09:58:51.652Z,3.40
2023-05-02T09:59:51.636Z,3.50
2023-05-02T10:00:51.678Z,4.00
2023-05-02T10:01:51.682Z,3.40
2023-05-02T10:02:51.658Z,3.20
2023-05-02T10:03:51.645Z,3.09
2023-05-02T10:04:51.593Z,2.79
2023-05-02T10:05:51.589Z,3.29
2023-05-02T10:06:51.690Z,2.70
2023-05-02T10:07:51.550Z,2.79
2023-05-02T10:08:51.553Z,2.50
2023-05-02T10:09:51.541Z,3.09
2023-05-02T10:10:51.527Z,3.40
2023-05-02T10:11:51.518Z,3.00
2023-05-02T10:12:51.501Z,2.70
2023-05-02T10:13:51.500Z,2.90
2023-05-02T10:14:51.486Z,3.09
2023-05-02T10:15:51.530Z,3.20
2023-05-02T10:16:51.480Z,3.50
2023-05-02T10:17:51.450Z,3.79
2023-05-02T10:18:51.445Z,2.79
2023-05-02T10:19:51.441Z,3.90
2023-05-02T10:20:51.420Z,2.90
2023-05-02T10:21:51.408Z,3.00
2023-05-02T10:22:51.406Z,3.20
2023-05-02T10:23:51.375Z,3.00
2023-05-02T10:24:51.386Z,3.09
2023-05-02T10:25:51.365Z,3.09
2023-05-02T10:26:51.353Z,2.90
2023-05-02T10:27:51.343Z,2.59
2023-05-02T10:28:51.339Z,2.59
2023-05-02T10:29:51.421Z,2.50
2023-05-02T10:30:51.306Z,2.59
2023-05-02T10:31:51.390Z,3.09
2023-05-02T10:32:51.395Z,3.50
2023-05-02T10:33:51.275Z,2.59
2023-05-02T10:34:51.281Z,4.00
2023-05-02T10:35:51.278Z,4.59
2023-05-02T10:36:51.253Z,3.09
2023-05-02T10:37:51.235Z,2.90
2023-05-02T10:38:51.265Z,5.09
2023-05-02T10:39:51.220Z,4.00
2023-05-02T10:40:51.211Z,3.00
2023-05-02T10:41:51.191Z,3.40
2023-05-02T10:42:51.188Z,3.00
2023-05-02T10:43:51.188Z,2.70
2023-05-02T10:44:51.215Z,2.70
2023-05-02T10:45:51.163Z,3.20
2023-05-02T10:46:51.188Z,3.20
2023-05-02T10:47:51.137Z,3.00
2023-05-02T10:48:51.150Z,2.90
2023-05-02T10:49:51.101Z,2.70
2023-05-02T10:50:51.108Z,3.59
2023-05-02T10:51:51.081Z,2.40
2023-05-02T10:52:51.069Z,2.70
2023-05-02T10:53:51.060Z,2.40
2023-05-02T10:54:51.055Z,2.20
2023-05-02T10:55:51.040Z,2.40
2023-05-02T10:56:51.037Z,2.29
2023-05-02T10:57:51.031Z,2.40
2023-05-02T10:58:51.030Z,2.50
2023-05-02T10:59:51.026Z,2.20
2023-05-02T11:00:51.071Z,2.50
2023-05-02T11:01:51.080Z,2.70
2023-05-02T11:02:51.010Z,2.50
2023-05-02T11:03:50.977Z,2.90
2023-05-02T11:04:50.988Z,2.50
2023-05-02T11:05:50.939Z,2.90
2023-05-02T11:06:50.969Z,2.40
2023-05-02T11:07:50.931Z,2.29
2023-05-02T11:08:50.900Z,2.29
2023-05-02T11:09:50.889Z,2.29
2023-05-02T11:10:50.880Z,2.20
2023-05-02T11:11:50.924Z,2.29
2023-05-02T11:12:50.896Z,2.90
2023-05-02T11:13:50.876Z,2.59
2023-05-02T11:14:50.898Z,2.70
2023-05-02T11:15:50.841Z,2.40
2023-05-02T11:16:50.982Z,2.40
2023-05-02T11:17:50.869Z,2.50
2023-05-02T11:18:50.790Z,2.20
2023-05-02T11:19:50.802Z,2.50
2023-05-02T11:20:50.795Z,2.59
2023-05-02T11:21:50.778Z,2.70
2023-05-02T11:22:50.753Z,2.79
2023-05-02T11:23:50.773Z,2.59
2023-05-02T11:24:50.739Z,2.59
2023-05-02T11:25:50.728Z,3.20
2023-05-02T11:26:50.706Z,2.90
2023-05-02T11:27:50.701Z,3.00
2023-05-02T11:28:50.701Z,2.40
2023-05-02T11:29:50.689Z,3.00
2023-05-02T11:30:50.664Z,2.79
2023-05-02T11:31:50.683Z,2.59
2023-05-02T11:32:50.720Z,2.59
2023-05-02T11:33:50.639Z,2.79
2023-05-02T11:34:50.621Z,2.70
2023-05-02T11:35:50.625Z,2.70
2023-05-02T11:36:50.621Z,3.09
2023-05-02T11:37:50.599Z,2.79
2023-05-02T11:38:50.580Z,2.79
2023-05-02T11:39:50.572Z,2.70
2023-05-02T11:40:50.668Z,2.70
2023-05-02T11:41:50.553Z,2.70
2023-05-02T11:42:50.555Z,2.40
2023-05-02T11:43:50.538Z,2.20
2023-05-02T11:44:50.517Z,2.50
2023-05-02T11:45:50.607Z,3.09
2023-05-02T11:46:50.568Z,2.29
2023-05-02T11:47:50.544Z,2.50
2023-05-02T11:48:50.469Z,2.59
2023-05-02T11:49:50.475Z,2.50
2023-05-02T11:50:50.923Z,2.00
2023-05-02T11:51:50.446Z,2.29
2023-05-02T11:52:50.460Z,2.00
2023-05-02T11:53:50.429Z,1.90
2023-05-02T11:54:50.408Z,2.29
2023-05-02T11:55:50.421Z,2.00
2023-05-02T11:56:50.419Z,2.40
2023-05-02T11:57:50.389Z,2.29
2023-05-02T11:58:50.370Z,2.20
2023-05-02T11:59:50.372Z,2.29
2023-05-02T12:00:50.365Z,2.29
2023-05-02T12:01:50.362Z,2.79
2023-05-02T12:02:50.396Z,3.90
2023-05-02T12:03:50.408Z,2.40
2023-05-02T12:04:50.318Z,3.00
2023-05-02T12:05:50.391Z,2.00
2023-05-02T12:06:50.350Z,3.70
2023-05-02T12:07:50.281Z,2.50
2023-05-02T12:08:50.294Z,2.29
2023-05-02T12:09:50.262Z,2.50
2023-05-02T12:10:50.243Z,2.20
2023-05-02T12:11:50.250Z,1.90
2023-05-02T12:12:50.216Z,2.90
2023-05-02T12:13:50.800Z,3.00
2023-05-02T12:14:50.194Z,3.90
2023-05-02T12:15:50.196Z,5.69
2023-05-02T12:16:50.215Z,2.90
2023-05-02T12:17:50.209Z,3.70
2023-05-02T12:18:50.158Z,4.09
2023-05-02T12:19:50.154Z,2.59
2023-05-02T12:20:50.135Z,2.40
2023-05-02T12:21:50.129Z,2.09
2023-05-02T12:22:50.116Z,2.20
2023-05-02T12:23:50.126Z,2.70
2023-05-02T12:24:50.116Z,2.59
2023-05-02T12:25:50.097Z,2.79
2023-05-02T12:26:51.114Z,2.20
2023-05-02T12:27:50.061Z,2.00
2023-05-02T12:28:50.061Z,2.79
2023-05-02T12:29:50.054Z,2.29
2023-05-02T12:30:50.022Z,1.90
2023-05-02T12:31:50.095Z,1.60
2023-05-02T12:32:50.029Z,1.79
2023-05-02T12:33:50.012Z,1.60
2023-05-02T12:34:49.996Z,1.79
2023-05-02T12:35:50.006Z,1.79
2023-05-02T12:36:49.967Z,1.79
2023-05-02T12:37:49.963Z,2.09
2023-05-02T12:38:49.941Z,1.70
2023-05-02T12:39:49.938Z,2.79
2023-05-02T12:40:49.962Z,1.90
2023-05-02T12:41:49.923Z,2.29
2023-05-02T12:42:49.898Z,2.70
2023-05-02T12:43:49.895Z,2.20
2023-05-02T12:44:49.874Z,2.50
2023-05-02T12:45:49.875Z,2.59
2023-05-02T12:46:49.893Z,1.90
2023-05-02T12:47:49.947Z,2.00
2023-05-02T12:48:49.845Z,2.90
2023-05-02T12:49:49.837Z,2.90
2023-05-02T12:50:49.833Z,2.29
2023-05-02T12:51:49.816Z,2.70
2023-05-02T12:52:49.828Z,2.09
2023-05-02T12:53:49.782Z,1.90
2023-05-02T12:54:49.770Z,1.60
2023-05-02T12:55:49.761Z,2.20
2023-05-02T12:56:49.781Z,1.70
2023-05-02T12:57:49.744Z,1.90
2023-05-02T12:58:49.730Z,2.09
2023-05-02T12:59:49.719Z,2.09
2023-05-02T13:00:49.717Z,2.00
2023-05-02T13:01:49.700Z,2.20
2023-05-02T13:02:49.734Z,2.40
2023-05-02T13:03:49.736Z,2.29